Time;durP1;ratioP1;P1;durP2;ratioP2;P2;SDS_P1;SDS_P2;PMS_P1;PMS_P2;Temp;Humidity;BMP_temperature;BMP_pressure;BME280_temperature;BME280_humidity;BME280_pressure;Samples;Min_cycle;Max_cycle;Signal;HPM_P1;HPM_P2
2022/10/02 00:02:22;;;;;;;6.60;5.90;;;;;;;15.47;92.30;98805.44;1767320;79;21009;-84
2022/10/02 00:05:12;;;;;;;8.15;6.33;;;;;;;15.50;92.34;98788.91;1782847;79;21045;-83
2022/10/02 00:08:00;;;;;;;6.72;6.12;;;;;;;15.50;92.56;98806.31;1779650;78;21025;-82
2022/10/02 00:10:44;;;;;;;5.90;5.40;;;;;;;15.46;92.79;98809.66;1789021;78;20997;-82
2022/10/02 00:13:34;;;;;;;7.67;5.95;;;;;;;15.56;92.35;98822.53;1783833;78;21250;-82
2022/10/02 00:16:02;;;;;;;8.70;6.25;;;;;;;15.59;92.15;98812.20;1786665;78;21182;-83
2022/10/02 00:18:32;;;;;;;7.17;6.00;;;;;;;15.53;92.29;98791.16;1786066;78;21021;-84
2022/10/02 00:21:41;;;;;;;7.87;5.62;;;;;;;15.51;92.62;98766.97;1793262;78;21972;-84
2022/10/02 00:24:18;;;;;;;9.70;5.85;;;;;;;15.58;92.51;98767.72;1785739;78;21029;-81
2022/10/02 00:27:02;;;;;;;7.12;6.42;;;;;;;15.58;92.61;98774.94;1800029;78;20926;-82
2022/10/02 00:29:34;;;;;;;8.95;6.03;;;;;;;15.53;92.52;98768.40;1801896;78;21492;-82
2022/10/02 00:32:14;;;;;;;6.05;5.53;;;;;;;15.52;92.38;98756.05;1789993;77;21501;-82
2022/10/02 00:35:15;;;;;;;6.45;5.67;;;;;;;15.56;92.34;98744.90;1791510;79;20990;-83
2022/10/02 00:38:03;;;;;;;6.25;5.65;;;;;;;15.50;92.53;98742.06;1782149;79;21001;-82
2022/10/02 00:40:59;;;;;;;6.78;5.03;;;;;;;15.39;92.83;98737.99;1783589;78;21641;-81
2022/10/02 00:43:51;;;;;;;5.10;4.60;;;;;;;15.41;92.69;98734.04;1791531;78;21788;-84
2022/10/02 00:46:35;;;;;;;11.12;4.92;;;;;;;15.38;92.94;98731.02;1783257;78;21148;-83
2022/10/02 00:49:33;;;;;;;4.70;4.30;;;;;;;15.25;92.99;98730.64;1749549;79;21059;-83
2022/10/02 00:52:41;;;;;;;5.55;4.85;;;;;;;15.23;93.04;98726.03;1765000;80;21111;-82
2022/10/02 00:55:22;;;;;;;6.55;5.10;;;;;;;15.26;92.89;98717.55;1757821;79;21076;-82
2022/10/02 00:58:41;;;;;;;5.40;4.85;;;;;;;15.16;93.17;98714.05;1743872;80;21128;-82
2022/10/02 01:01:12;;;;;;;6.92;4.70;;;;;;;15.12;93.43;98709.70;1750107;80;21551;-84
2022/10/02 01:03:43;;;;;;;5.05;4.42;;;;;;;15.20;93.28;98693.87;1756810;79;21015;-83
2022/10/02 01:06:10;;;;;;;7.22;4.72;;;;;;;15.13;93.25;98676.54;1761916;80;21056;-81
2022/10/02 01:08:39;;;;;;;5.87;3.92;;;;;;;15.04;93.50;98684.56;1702221;80;21036;-82
2022/10/02 01:11:06;;;;;;;4.67;3.77;;;;;;;15.05;93.66;98677.38;1767855;81;21422;-84
2022/10/02 01:13:35;;;;;;;4.53;3.83;;;;;;;15.10;93.50;98674.33;1768116;79;20973;-85
2022/10/02 01:16:02;;;;;;;4.62;3.92;;;;;;;15.08;93.67;98676.91;1777463;79;21064;-84
2022/10/02 01:18:29;;;;;;;4.58;3.60;;;;;;;15.02;93.89;98670.59;1791223;78;21031;-82
2022/10/02 01:21:06;;;;;;;5.97;3.60;;;;;;;15.03;93.78;98668.23;1757941;79;21012;-83
2022/10/02 01:23:48;;;;;;;4.80;3.75;;;;;;;15.08;93.43;98660.33;1792985;78;21248;-85
2022/10/02 01:26:14;;;;;;;6.05;4.08;;;;;;;15.05;93.35;98650.09;1745884;81;21030;-82
2022/10/02 01:28:40;;;;;;;6.60;3.55;;;;;;;14.98;93.29;98645.34;1772353;79;20999;-83
2022/10/02 01:31:09;;;;;;;3.77;3.47;;;;;;;14.99;93.20;98642.98;1803043;78;21111;-82
2022/10/02 01:33:40;;;;;;;5.25;3.67;;;;;;;15.06;92.88;98637.53;1814995;78;21017;-82
2022/10/02 01:36:11;;;;;;;5.60;3.75;;;;;;;15.02;92.91;98631.00;1791675;79;20942;-83
2022/10/02 01:38:39;;;;;;;3.40;2.70;;;;;;;14.93;93.15;98623.79;1778131;79;21002;-82
2022/10/02 01:41:06;;;;;;;4.90;3.83;;;;;;;14.92;93.19;98624.31;1784127;80;21009;-83
2022/10/02 01:43:36;;;;;;;3.80;3.50;;;;;;;14.98;92.95;98620.46;1770301;79;21084;-81
2022/10/02 01:46:28;;;;;;;5.90;3.80;;;;;;;14.90;93.10;98608.21;1785598;79;21017;-81
2022/10/02 01:49:12;;;;;;;3.22;2.77;;;;;;;14.81;93.25;98602.33;1759724;79;21234;-83
2022/10/02 01:51:59;;;;;;;3.12;2.83;;;;;;;14.83;93.26;98592.23;1771393;79;21056;-84
2022/10/02 01:54:34;;;;;;;4.42;3.92;;;;;;;14.87;93.24;98603.30;1760309;80;21045;-85
2022/10/02 01:57:12;;;;;;;6.78;3.52;;;;;;;14.78;93.53;98605.47;1731539;81;21016;-84
2022/10/02 02:00:11;;;;;;;4.05;3.08;;;;;;;14.72;93.90;98601.02;1774879;79;21072;-81
2022/10/02 02:03:12;;;;;;;4.30;3.37;;;;;;;14.77;93.87;98590.45;1779604;79;21136;-83
2022/10/02 02:05:59;;;;;;;8.18;3.20;;;;;;;14.80;93.81;98587.88;1745600;81;21057;-83
2022/10/02 02:08:49;;;;;;;3.75;3.00;;;;;;;14.76;93.91;98578.14;1767987;79;21140;-84
2022/10/02 02:11:19;;;;;;;4.92;3.50;;;;;;;14.81;93.63;98577.46;1785077;80;21157;-84
2022/10/02 02:14:15;;;;;;;6.28;3.92;;;;;;;14.87;93.24;98569.88;1773784;80;21020;-84
2022/10/02 02:16:47;;;;;;;4.37;3.80;;;;;;;14.82;93.38;98561.73;1743256;80;22384;-82
2022/10/02 02:19:24;;;;;;;6.70;3.75;;;;;;;14.75;93.55;98549.23;1742647;81;21036;-81
2022/10/02 02:22:04;;;;;;;5.75;3.20;;;;;;;14.79;93.27;98542.92;1784642;78;21038;-81
2022/10/02 02:24:38;;;;;;;5.25;3.05;;;;;;;14.83;93.02;98532.07;1793908;79;21041;-81
2022/10/02 02:27:04;;;;;;;6.25;3.72;;;;;;;14.71;93.18;98524.00;1762330;79;21044;-82
2022/10/02 02:29:35;;;;;;;5.33;3.02;;;;;;;14.59;93.50;98515.11;1761563;80;21088;-83
2022/10/02 02:32:05;;;;;;;3.75;3.02;;;;;;;14.55;93.53;98513.90;1757825;81;21033;-85
2022/10/02 02:34:38;;;;;;;3.90;3.55;;;;;;;14.58;93.63;98509.45;1753558;80;21027;-85
2022/10/02 02:37:12;;;;;;;3.98;3.58;;;;;;;14.54;93.85;98497.55;1788806;79;20989;-85
2022/10/02 02:39:45;;;;;;;5.25;3.50;;;;;;;14.47;94.07;98486.15;1739497;79;21099;-84
2022/10/02 02:43:23;;;;;;;4.22;3.67;;;;;;;14.53;94.11;98475.89;1791391;78;28775;-83
2022/10/02 02:45:56;;;;;;;4.67;3.75;;;;;;;14.49;94.04;98477.39;1757194;80;21030;-84
2022/10/02 02:48:48;;;;;;;3.80;3.40;;;;;;;14.44;94.18;98471.36;1752282;81;21212;-82
2022/10/02 02:51:20;;;;;;;4.47;2.75;;;;;;;14.39;94.32;98470.40;1736901;81;20950;-84
2022/10/02 02:54:03;;;;;;;4.42;3.17;;;;;;;14.45;94.11;98459.65;1749672;80;21037;-83
2022/10/02 02:56:31;;;;;;;3.75;3.45;;;;;;;14.49;94.02;98454.67;1734149;82;20969;-80
2022/10/02 02:59:09;;;;;;;4.75;3.30;;;;;;;14.44;94.06;98441.97;1746016;80;21013;-84
2022/10/02 03:01:35;;;;;;;3.85;3.02;;;;;;;14.42;93.99;98444.58;1750688;81;21174;-83
2022/10/02 03:04:02;;;;;;;3.55;2.72;;;;;;;14.50;93.67;98443.73;1756127;80;21002;-83
2022/10/02 03:06:37;;;;;;;3.52;3.22;;;;;;;14.56;93.50;98439.35;1752858;80;21471;-81
2022/10/02 03:09:06;;;;;;;3.85;3.02;;;;;;;14.54;93.49;98434.25;1738843;80;21028;-81
2022/10/02 03:11:53;;;;;;;3.98;2.83;;;;;;;14.52;93.35;98428.30;1754704;80;21112;-83
2022/10/02 03:14:55;;;;;;;3.92;3.12;;;;;;;14.59;93.09;98423.44;1735984;80;21617;-84
2022/10/02 03:18:00;;;;;;;5.90;3.70;;;;;;;14.65;92.86;98419.32;1733815;80;21054;-82
2022/10/02 03:20:54;;;;;;;4.12;3.00;;;;;;;14.62;92.87;98417.13;1737229;81;20998;-83
2022/10/02 03:23:29;;;;;;;3.00;2.70;;;;;;;14.59;92.71;98416.75;1723542;82;21002;-83
2022/10/02 03:26:06;;;;;;;3.40;3.10;;;;;;;14.70;92.56;98406.63;1710165;81;21013;-84
2022/10/02 03:28:38;;;;;;;3.30;2.92;;;;;;;14.72;92.34;98406.69;1730750;82;20957;-80
2022/10/02 03:31:05;;;;;;;4.15;2.83;;;;;;;14.69;92.55;98401.78;1718495;81;21010;-86
2022/10/02 03:33:34;;;;;;;4.62;2.70;;;;;;;14.71;92.64;98399.70;1753956;81;21089;-84
2022/10/02 03:36:01;;;;;;;4.78;3.20;;;;;;;14.78;92.50;98383.58;1705167;81;21014;-82
2022/10/02 03:38:27;;;;;;;3.67;3.27;;;;;;;14.74;92.67;98372.52;1687788;80;21146;-81
2022/10/02 03:40:57;;;;;;;3.40;2.85;;;;;;;14.71;92.81;98375.64;1739423;80;21202;-85
2022/10/02 03:43:24;;;;;;;4.15;3.55;;;;;;;14.75;92.95;98378.68;1771971;80;21033;-82
2022/10/02 03:45:51;;;;;;;4.50;2.77;;;;;;;14.82;92.74;98385.28;1784204;80;21477;-84
2022/10/02 03:48:18;;;;;;;6.37;3.35;;;;;;;14.78;92.86;98397.48;1762762;80;21021;-84
2022/10/02 03:50:44;;;;;;;5.42;3.60;;;;;;;14.72;92.86;98409.89;1760088;80;21076;-84
2022/10/02 03:53:17;;;;;;;5.20;3.08;;;;;;;14.74;92.82;98411.28;1763130;80;21489;-85
2022/10/02 03:55:54;;;;;;;4.85;3.65;;;;;;;14.79;92.72;98398.56;1770356;80;21737;-80
2022/10/02 03:58:21;;;;;;;4.45;3.70;;;;;;;14.78;92.92;98390.27;1753500;80;21071;-84
2022/10/02 04:01:03;;;;;;;3.98;3.52;;;;;;;14.73;93.11;98402.95;1758604;80;21065;-86
2022/10/02 04:03:52;;;;;;;5.47;3.15;;;;;;;14.68;93.41;98400.17;1765321;80;21068;-87
2022/10/02 04:06:34;;;;;;;3.85;3.40;;;;;;;14.74;93.28;98381.88;1728935;81;21689;-88
2022/10/02 04:09:29;;;;;;;7.47;4.20;;;;;;;14.75;93.40;98377.34;1770391;80;20997;-83
2022/10/02 04:12:10;;;;;;;4.40;3.62;;;;;;;14.66;93.64;98374.20;1762120;80;20985;-84
2022/10/02 04:14:45;;;;;;;5.17;3.40;;;;;;;14.63;93.85;98378.65;1785319;77;21028;-83
2022/10/02 04:17:21;;;;;;;4.90;3.55;;;;;;;14.70;93.80;98371.36;1759573;78;20961;-85
2022/10/02 04:19:53;;;;;;;5.58;3.40;;;;;;;14.70;93.95;98367.34;1755910;79;21128;-84
2022/10/02 04:22:46;;;;;;;7.00;4.00;;;;;;;14.65;94.17;98363.73;1767931;80;21029;-84
2022/10/02 04:25:22;;;;;;;5.85;5.25;;;;;;;14.69;94.20;98352.34;1771021;80;21004;-82
2022/10/02 04:27:54;;;;;;;4.47;3.55;;;;;;;14.79;93.87;98331.73;1765446;80;20977;-86
2022/10/02 04:30:20;;;;;;;4.60;3.58;;;;;;;14.76;93.99;98340.23;1784186;80;21001;-85
2022/10/02 04:32:48;;;;;;;6.17;3.50;;;;;;;14.71;94.17;98338.22;1766319;80;21078;-84
2022/10/02 04:35:28;;;;;;;3.47;3.08;;;;;;;14.71;93.92;98322.18;1765452;80;21065;-86
2022/10/02 04:38:19;;;;;;;4.33;3.67;;;;;;;14.75;93.85;98327.89;1760010;80;21017;-86
2022/10/02 04:41:17;;;;;;;4.85;4.10;;;;;;;14.70;94.07;98325.91;1760258;80;21031;-85
2022/10/02 04:44:13;;;;;;;4.47;3.05;;;;;;;14.64;94.54;98321.49;1770875;80;21023;-84
2022/10/02 04:47:16;;;;;;;6.20;3.40;;;;;;;14.69;94.57;98304.76;1750777;80;21103;-84
2022/10/02 04:50:05;;;;;;;8.90;4.58;;;;;;;14.79;94.37;98294.83;1757618;80;21045;-85
2022/10/02 04:52:51;;;;;;;4.25;3.30;;;;;;;14.71;94.39;98285.30;1769331;80;21111;-83
2022/10/02 04:55:41;;;;;;;4.90;3.47;;;;;;;14.68;94.64;98268.37;1778645;80;20993;-83
2022/10/02 04:58:36;;;;;;;5.95;4.12;;;;;;;14.79;94.29;98248.05;1749752;80;21552;-83
2022/10/02 05:01:29;;;;;;;7.10;5.00;;;;;;;14.83;93.91;98250.02;1746970;80;21166;-85
2022/10/02 05:04:26;;;;;;;5.50;4.17;;;;;;;14.73;94.20;98241.23;1759468;80;21041;-86
2022/10/02 05:07:06;;;;;;;4.35;3.98;;;;;;;14.82;94.23;98246.27;1758462;80;20981;-87
2022/10/02 05:09:45;;;;;;;4.50;4.10;;;;;;;14.90;93.85;98239.22;1759205;80;22056;-83
2022/10/02 05:12:49;;;;;;;6.28;5.35;;;;;;;14.89;93.70;98234.91;1752985;80;20919;-84
2022/10/02 05:15:38;;;;;;;5.17;4.10;;;;;;;14.82;93.53;98220.87;1753359;80;22009;-85
2022/10/02 05:18:11;;;;;;;7.33;4.42;;;;;;;14.87;93.37;98226.31;1740779;80;21024;-85
2022/10/02 05:20:49;;;;;;;6.75;4.67;;;;;;;14.88;93.23;98227.42;1732078;80;21088;-84
2022/10/02 05:23:33;;;;;;;7.30;4.87;;;;;;;14.81;93.42;98221.90;1751189;80;21545;-87
2022/10/02 05:26:09;;;;;;;5.10;4.60;;;;;;;14.74;93.64;98222.83;1761630;81;21530;-85
2022/10/02 05:29:01;;;;;;;5.83;5.05;;;;;;;14.81;93.49;98224.57;1750561;80;21163;-84
2022/10/02 05:31:54;;;;;;;9.48;6.35;;;;;;;14.86;93.71;98232.72;1759893;80;21038;-85
2022/10/02 05:34:46;;;;;;;7.40;6.15;;;;;;;14.82;93.66;98242.25;1769954;80;21494;-84
2022/10/02 05:37:51;;;;;;;8.28;7.47;;;;;;;14.73;93.67;98255.94;1727171;82;21014;-85
2022/10/02 05:40:53;;;;;;;12.15;9.50;;;;;;;14.85;93.30;98273.85;1702866;83;21586;-87
2022/10/02 05:43:40;;;;;;;12.37;11.18;;;;;;;14.80;93.00;98250.50;1743682;80;21853;-86
2022/10/02 05:46:17;;;;;;;14.10;9.98;;;;;;;14.68;93.43;98213.58;1735055;82;21109;-85
2022/10/02 05:48:58;;;;;;;12.50;9.75;;;;;;;14.70;93.55;98204.30;1712523;83;20991;-84
2022/10/02 05:51:52;;;;;;;12.98;11.22;;;;;;;14.79;93.87;98200.73;1695766;83;21061;-85
2022/10/02 05:54:57;;;;;;;13.75;12.15;;;;;;;14.79;94.39;98202.08;1694633;83;21091;-85
2022/10/02 05:57:35;;;;;;;13.03;10.30;;;;;;;14.77;94.92;98204.70;1672673;83;21170;-86
2022/10/02 06:00:41;;;;;;;17.17;10.93;;;;;;;14.85;94.83;98194.98;1707692;83;21026;-82
2022/10/02 06:03:45;;;;;;;14.20;11.68;;;;;;;14.92;95.00;98193.02;1719793;83;21011;-84
2022/10/02 06:06:17;;;;;;;;;;;;;;;14.92;95.40;98198.36;1737585;82;21585;-85
2022/10/02 06:08:50;;;;;;;11.18;10.08;;;;;;;14.88;95.06;98190.52;1701188;82;20180;-84
2022/10/02 06:11:25;;;;;;;12.80;11.45;;;;;;;14.88;95.03;98175.28;1715366;80;21137;-86
2022/10/02 06:14:09;;;;;;;13.98;11.90;;;;;;;14.98;94.99;98177.89;1709161;80;21092;-85
2022/10/02 06:16:42;;;;;;;13.93;12.63;;;;;;;14.90;94.51;98166.50;1728619;83;20995;-85
2022/10/02 06:19:17;;;;;;;14.43;11.25;;;;;;;14.80;94.58;98164.95;1700519;83;21038;-83
2022/10/02 06:21:51;;;;;;;11.48;9.70;;;;;;;14.78;94.45;98160.90;1702042;83;21138;-82
2022/10/02 06:24:38;;;;;;;14.35;12.75;;;;;;;14.81;94.55;98168.43;1708756;82;21880;-84
2022/10/02 06:27:16;;;;;;;15.40;11.95;;;;;;;14.74;94.99;98152.53;1718882;83;21163;-84
2022/10/02 06:29:49;;;;;;;13.40;11.28;;;;;;;14.72;96.01;98158.10;1715928;83;21038;-81
2022/10/02 06:32:30;;;;;;;10.55;9.00;;;;;;;14.79;95.80;98165.19;1730700;83;21007;-81
2022/10/02 06:34:56;;;;;;;10.82;9.18;;;;;;;14.84;95.30;98164.77;1707110;83;21020;-83
2022/10/02 06:37:39;;;;;;;10.05;8.40;;;;;;;14.74;95.48;98152.00;1735911;82;21100;-86
2022/10/02 06:40:41;;;;;;;10.65;7.95;;;;;;;14.68;95.75;98148.09;1745983;82;21054;-83
2022/10/02 06:43:27;;;;;;;8.80;7.92;;;;;;;14.70;95.89;98143.36;1666538;83;21611;-83
2022/10/02 06:46:09;;;;;;;11.93;9.00;;;;;;;14.79;96.11;98149.14;1654769;84;21093;-84
2022/10/02 06:48:57;;;;;;;9.08;8.05;;;;;;;14.74;95.61;98136.49;1704797;82;21104;-83
2022/10/02 06:51:33;;;;;;;10.65;8.18;;;;;;;14.69;95.48;98130.49;1728751;80;21227;-83
2022/10/02 06:54:30;;;;;;;10.05;9.03;;;;;;;14.68;95.39;98140.08;1772565;80;21509;-81
2022/10/02 06:57:47;;;;;;;10.30;8.48;;;;;;;14.55;95.75;98131.23;1767713;80;21035;-83
2022/10/02 07:00:16;;;;;;;11.93;8.55;;;;;;;14.47;96.23;98130.78;1759156;80;21100;-81
2022/10/02 07:03:21;;;;;;;13.38;9.83;;;;;;;14.47;97.14;98129.45;1759595;80;20986;-83
2022/10/02 07:06:20;;;;;;;11.73;9.15;;;;;;;14.45;98.19;98123.53;1740023;80;21577;-80
2022/10/02 07:09:10;;;;;;;9.33;8.33;;;;;;;14.46;98.81;98123.80;1734646;80;21041;-81
2022/10/02 07:12:16;;;;;;;9.48;8.58;;;;;;;14.54;98.38;98118.09;1760633;80;21001;-80
2022/10/02 07:14:51;;;;;;;9.73;8.73;;;;;;;14.50;97.61;98116.95;1761286;80;20966;-80
2022/10/02 07:17:32;;;;;;;9.28;8.30;;;;;;;14.32;98.26;98106.67;1766438;80;21060;-80
2022/10/02 07:20:23;;;;;;;10.18;9.18;;;;;;;14.28;98.69;98104.17;1765397;80;21560;-80
2022/10/02 07:23:23;;;;;;;8.90;8.10;;;;;;;14.27;99.16;98104.40;1748583;80;21013;-81
2022/10/02 07:26:12;;;;;;;9.15;7.62;;;;;;;14.17;100.00;98098.30;1763503;80;21600;-80
2022/10/02 07:29:03;;;;;;;8.85;8.05;;;;;;;14.16;100.00;98099.36;1759971;80;21494;-82
2022/10/02 07:31:56;;;;;;;9.70;8.80;;;;;;;14.19;100.00;98098.88;1751126;80;21028;-81
2022/10/02 07:34:34;;;;;;;10.10;8.65;;;;;;;14.12;100.00;98100.34;1749200;80;21815;-81
2022/10/02 07:37:39;;;;;;;12.30;8.88;;;;;;;14.11;100.00;98100.03;1748074;80;21036;-80
2022/10/02 07:40:40;;;;;;;;;;;;;;;14.11;100.00;98093.89;1755627;80;21755;-80
2022/10/02 07:43:18;;;;;;;9.78;8.88;;;;;;;14.09;100.00;98103.98;1759267;80;20205;-78
2022/10/02 07:45:58;;;;;;;10.88;9.88;;;;;;;14.04;100.00;98095.84;1759291;80;21064;-79
2022/10/02 07:49:05;;;;;;;9.25;8.23;;;;;;;14.02;100.00;98099.27;1765613;80;21214;-78
2022/10/02 07:51:46;;;;;;;11.45;10.20;;;;;;;13.99;100.00;98099.22;1752761;80;21613;-78
2022/10/02 07:54:30;;;;;;;9.70;8.08;;;;;;;13.94;100.00;98099.09;1760060;80;21049;-79
2022/10/02 07:57:10;;;;;;;8.85;7.92;;;;;;;13.94;100.00;98094.55;1759439;80;20986;-79
2022/10/02 07:59:38;;;;;;;9.30;8.40;;;;;;;13.95;100.00;98092.72;1743029;80;20990;-78
2022/10/02 08:02:07;;;;;;;9.75;8.75;;;;;;;13.93;100.00;98092.14;1749575;80;21228;-77
2022/10/02 08:04:36;;;;;;;10.63;8.95;;;;;;;13.95;100.00;98080.17;1695980;83;21101;-78
2022/10/02 08:07:04;;;;;;;9.65;8.85;;;;;;;13.97;100.00;98077.28;1692485;83;21171;-77
2022/10/02 08:09:46;;;;;;;9.93;8.35;;;;;;;13.95;100.00;98085.52;1763659;80;21541;-78
2022/10/02 08:12:44;;;;;;;9.58;8.60;;;;;;;14.00;100.00;98068.80;1753133;80;21052;-77
2022/10/02 08:15:14;;;;;;;7.17;6.47;;;;;;;14.05;100.00;98064.11;1755713;80;21146;-79
2022/10/02 08:17:57;;;;;;;6.95;6.25;;;;;;;14.04;100.00;98055.30;1754491;80;21502;-79
2022/10/02 08:20:34;;;;;;;7.80;7.00;;;;;;;14.08;100.00;98046.28;1766919;80;21044;-79
2022/10/02 08:23:21;;;;;;;10.95;6.70;;;;;;;14.06;100.00;98038.52;1769359;80;21068;-78
2022/10/02 08:26:03;;;;;;;7.47;6.25;;;;;;;14.02;100.00;98029.86;1757154;80;21033;-79
2022/10/02 08:28:45;;;;;;;6.72;6.08;;;;;;;14.08;100.00;98024.41;1756449;80;21677;-81
2022/10/02 08:31:13;;;;;;;6.87;6.17;;;;;;;14.12;100.00;98019.42;1709573;83;22024;-79
2022/10/02 08:33:41;;;;;;;6.00;5.40;;;;;;;14.11;100.00;98023.12;1689632;83;21058;-78
2022/10/02 08:36:37;;;;;;;5.90;5.35;;;;;;;14.13;100.00;98025.84;1760674;80;21036;-79
2022/10/02 08:39:18;;;;;;;6.03;4.70;;;;;;;14.23;100.00;98015.91;1762842;80;21068;-80
2022/10/02 08:42:15;;;;;;;4.95;4.55;;;;;;;14.32;100.00;98018.52;1766805;80;21205;-78
2022/10/02 08:45:39;;;;;;;5.25;4.55;;;;;;;14.43;100.00;98021.40;1761792;80;21065;-77
2022/10/02 08:48:55;;;;;;;5.15;4.22;;;;;;;14.46;100.00;98021.75;1769940;80;21085;-78
2022/10/02 08:52:00;;;;;;;4.37;3.98;;;;;;;14.60;100.00;98016.98;1760081;80;22052;-77
2022/10/02 08:55:03;;;;;;;4.33;3.55;;;;;;;14.73;100.00;98015.91;1749538;80;21001;-78
2022/10/02 08:57:59;;;;;;;3.40;3.10;;;;;;;14.80;100.00;98013.92;1746555;80;21194;-77
2022/10/02 09:00:47;;;;;;;4.15;3.40;;;;;;;14.86;100.00;98007.61;1752852;80;21065;-80
2022/10/02 09:03:36;;;;;;;3.35;3.05;;;;;;;14.84;100.00;98007.58;1768619;80;21000;-77
2022/10/02 09:06:29;;;;;;;3.10;2.80;;;;;;;14.80;100.00;98009.11;1759768;80;21049;-79
2022/10/02 09:09:18;;;;;;;3.50;2.87;;;;;;;14.81;100.00;98005.37;1751678;80;21064;-79
2022/10/02 09:12:22;;;;;;;2.90;2.47;;;;;;;14.81;100.00;98008.04;1751065;80;21742;-79
2022/10/02 09:14:54;;;;;;;;;;;;;;;14.81;100.00;98003.50;1756681;80;20994;-79
2022/10/02 09:18:04;;;;;;;3.50;2.30;;;;;;;14.81;100.00;98009.38;1746399;80;20209;-81
2022/10/02 09:20:54;;;;;;;3.40;2.15;;;;;;;14.78;100.00;98005.86;1752437;80;21068;-81
2022/10/02 09:23:29;;;;;;;2.10;1.90;;;;;;;14.77;100.00;98000.21;1750718;80;21024;-77
2022/10/02 09:26:03;;;;;;;2.20;2.00;;;;;;;14.78;100.00;98007.20;1767341;80;21848;-78
2022/10/02 09:28:59;;;;;;;2.30;2.10;;;;;;;14.78;100.00;98012.01;1711427;82;21345;-80
2022/10/02 09:31:51;;;;;;;2.20;1.90;;;;;;;14.79;100.00;98001.59;1693375;83;21068;-79
2022/10/02 09:35:00;;;;;;;3.35;2.02;;;;;;;14.80;100.00;97999.75;1758063;80;21006;-79
2022/10/02 09:38:27;;;;;;;2.10;1.87;;;;;;;14.84;100.00;98008.91;1764322;80;21025;-81
2022/10/02 09:41:32;;;;;;;1.85;1.70;;;;;;;14.87;100.00;98001.73;1710820;83;21286;-80
2022/10/02 09:44:13;;;;;;;1.62;1.52;;;;;;;14.97;100.00;98009.97;1696938;83;21555;-79
2022/10/02 09:47:15;;;;;;;1.82;1.60;;;;;;;15.09;100.00;98011.25;1764924;80;21578;-78
2022/10/02 09:50:04;;;;;;;1.98;1.77;;;;;;;15.22;100.00;98006.95;1770913;80;21013;-79
2022/10/02 09:53:23;;;;;;;1.60;1.50;;;;;;;15.29;99.91;98005.45;1756512;80;21524;-80
2022/10/02 09:56:26;;;;;;;1.77;1.67;;;;;;;15.31;99.93;98004.68;1770258;80;21892;-79
2022/10/02 09:59:21;;;;;;;1.70;1.60;;;;;;;15.35;99.37;98019.19;1766067;80;21109;-80
2022/10/02 10:02:20;;;;;;;1.77;1.67;;;;;;;15.32;98.99;98018.36;1758935;80;20997;-78
2022/10/02 10:05:19;;;;;;;2.08;1.92;;;;;;;15.28;98.71;98011.33;1767538;80;21037;-79
2022/10/02 10:08:15;;;;;;;2.67;1.75;;;;;;;15.26;98.55;98009.42;1756724;80;21591;-80
2022/10/02 10:11:09;;;;;;;1.67;1.52;;;;;;;15.31;97.90;98007.35;1759469;80;21213;-79
2022/10/02 10:13:59;;;;;;;1.80;1.70;;;;;;;15.51;97.96;98002.86;1769067;80;21033;-78
2022/10/02 10:16:53;;;;;;;6.08;2.10;;;;;;;15.70;97.42;98001.59;1758387;80;20998;-80
2022/10/02 10:19:49;;;;;;;1.72;1.62;;;;;;;15.81;95.26;98004.45;1754301;80;21083;-78
2022/10/02 10:22:37;;;;;;;2.08;1.80;;;;;;;15.84;94.63;98002.10;1760557;80;21025;-79
2022/10/02 10:25:36;;;;;;;1.98;1.77;;;;;;;15.91;94.25;98008.08;1776302;80;21204;-81
2022/10/02 10:28:20;;;;;;;1.60;1.50;;;;;;;15.88;93.83;98009.93;1686071;80;21556;-75
2022/10/02 10:31:21;;;;;;;2.37;1.60;;;;;;;15.91;93.19;98004.06;1772728;80;21021;-79
2022/10/02 10:34:44;;;;;;;2.15;1.70;;;;;;;15.94;92.49;98003.32;1769791;80;22111;-78
2022/10/02 10:40:35;;;;;;;1.50;1.40;;;;;;;15.80;92.46;98011.69;1732029;80;21103;-80
2022/10/02 10:43:33;;;;;;;1.95;1.85;;;;;;;15.80;92.76;98004.98;1757538;80;21107;-79
2022/10/02 10:46:33;;;;;;;2.22;1.85;;;;;;;15.76;93.13;98003.03;1765744;80;21028;-79
2022/10/02 10:49:30;;;;;;;1.50;1.40;;;;;;;15.66;92.64;98014.36;1774440;80;21025;-79
2022/10/02 10:52:46;;;;;;;1.32;1.12;;;;;;;15.61;93.00;98033.03;1751571;80;21040;-79
2022/10/02 10:55:27;;;;;;;1.40;1.27;;;;;;;15.41;91.94;98034.27;1762563;80;21307;-78
2022/10/02 10:58:31;;;;;;;1.32;1.15;;;;;;;15.03;91.99;98038.95;1763659;80;21044;-79
2022/10/02 11:01:19;;;;;;;3.92;1.20;;;;;;;14.80;92.02;98057.22;1756585;80;21011;-78
2022/10/02 11:04:28;;;;;;;1.55;1.10;;;;;;;14.40;91.64;98047.27;1773588;80;21016;-79
2022/10/02 11:07:09;;;;;;;3.15;0.90;;;;;;;14.11;92.49;98053.84;1707975;84;21109;-79
2022/10/02 11:10:17;;;;;;;1.10;1.00;;;;;;;13.80;91.32;98067.80;1692315;83;21710;-78
2022/10/02 11:13:22;;;;;;;2.25;0.98;;;;;;;13.55;93.44;98058.11;1746760;80;21105;-79
2022/10/02 11:16:12;;;;;;;1.30;1.20;;;;;;;13.41;93.57;98067.36;1768640;80;21639;-77
2022/10/02 11:19:07;;;;;;;0.80;0.80;;;;;;;13.29;94.02;98061.12;1785521;80;20988;-79
2022/10/02 11:21:45;;;;;;;1.00;1.00;;;;;;;13.12;94.90;98064.97;1762979;80;21651;-76
2022/10/02 11:24:37;;;;;;;1.10;1.00;;;;;;;13.08;95.00;98072.59;1753906;80;21119;-79
2022/10/02 11:27:21;;;;;;;1.50;1.20;;;;;;;13.04;94.58;98060.75;1777146;80;21100;-78
2022/10/02 11:30:02;;;;;;;2.50;1.10;;;;;;;12.89;95.05;98069.66;1770081;80;20994;-80
2022/10/02 11:32:34;;;;;;;1.37;1.20;;;;;;;12.78;94.75;98064.02;1760764;80;21544;-79
2022/10/02 11:35:31;;;;;;;1.20;1.10;;;;;;;12.75;95.04;98063.16;1755173;80;21504;-79
2022/10/02 11:38:41;;;;;;;1.98;1.10;;;;;;;12.66;95.19;98064.48;1767250;80;21521;-79
2022/10/02 11:41:21;;;;;;;0.93;0.93;;;;;;;12.62;94.62;98076.62;1757965;80;21120;-78
2022/10/02 11:44:36;;;;;;;1.32;1.02;;;;;;;12.59;94.42;98081.05;1763226;80;21006;-77
2022/10/02 11:47:30;;;;;;;1.30;1.20;;;;;;;12.54;94.81;98080.92;1757653;80;21021;-78
2022/10/02 11:50:40;;;;;;;1.37;0.98;;;;;;;12.49;94.88;98079.43;1755584;80;21035;-77
2022/10/02 11:53:36;;;;;;;2.72;1.10;;;;;;;12.50;94.30;98069.89;1755632;80;21212;-77
2022/10/02 11:56:43;;;;;;;2.22;1.17;;;;;;;12.36;94.28;98078.55;1762776;80;21100;-79
2022/10/02 11:59:49;;;;;;;2.20;1.12;;;;;;;12.35;94.47;98080.89;1771146;80;21041;-77
2022/10/02 12:02:45;;;;;;;1.10;0.98;;;;;;;12.28;94.53;98076.14;1760675;80;21024;-78
2022/10/02 12:05:27;;;;;;;2.85;1.75;;;;;;;12.18;95.07;98083.30;1755201;80;20977;-75
2022/10/02 12:08:33;;;;;;;1.98;1.30;;;;;;;12.17;94.00;98081.69;1755437;80;21179;-78
2022/10/02 12:11:56;;;;;;;1.75;1.17;;;;;;;12.06;93.38;98077.07;1765019;80;21013;-79
2022/10/02 12:14:49;;;;;;;1.37;1.20;;;;;;;11.92;93.82;98070.25;1764670;80;21509;-80
2022/10/02 12:17:34;;;;;;;3.15;1.10;;;;;;;11.87;94.24;98060.73;1760837;80;26569;-80
2022/10/02 12:26:59;;;;;;;1.07;0.98;;;;;;;11.67;95.05;98068.36;1761019;80;20990;-77
2022/10/02 12:29:55;;;;;;;1.20;0.80;;;;;;;11.54;95.15;98060.47;1767826;80;21052;-80
2022/10/02 12:32:52;;;;;;;1.50;1.10;;;;;;;11.52;95.35;98057.21;1755471;80;21099;-78
2022/10/02 12:35:42;;;;;;;1.02;0.93;;;;;;;11.52;94.80;98069.98;1765526;80;20998;-76
2022/10/02 12:38:54;;;;;;;0.75;0.75;;;;;;;11.46;95.05;98067.38;1767405;80;21112;-78
2022/10/02 12:42:01;;;;;;;3.10;0.98;;;;;;;11.43;94.22;98069.12;1763365;80;21520;-77
2022/10/02 12:44:57;;;;;;;1.00;1.00;;;;;;;11.47;94.27;98069.00;1764151;80;21092;-82
2022/10/02 12:47:54;;;;;;;2.42;1.02;;;;;;;11.44;94.13;98054.30;1763720;80;21718;-77
2022/10/02 12:50:54;;;;;;;1.32;1.17;;;;;;;11.43;94.36;98060.62;1751825;80;21052;-75
2022/10/02 12:53:43;;;;;;;1.10;0.88;;;;;;;11.52;93.39;98069.17;1756941;80;21206;-77
2022/10/02 12:56:33;;;;;;;1.40;0.90;;;;;;;11.52;91.84;98066.52;1755367;80;21045;-77
2022/10/02 12:59:20;;;;;;;1.25;0.88;;;;;;;11.46;91.58;98062.88;1775444;80;21535;-77
2022/10/02 13:01:56;;;;;;;1.92;1.00;;;;;;;11.53;91.82;98068.97;1760398;80;22325;-75
2022/10/02 13:04:50;;;;;;;1.50;1.40;;;;;;;11.50;91.29;98053.95;1757410;80;21060;-79
2022/10/02 13:08:04;;;;;;;2.20;0.90;;;;;;;11.49;90.93;98064.27;1766834;80;21099;-80
2022/10/02 13:11:00;;;;;;;1.12;1.00;;;;;;;11.55;89.96;98059.42;1735296;80;21547;-79
2022/10/02 13:13:47;;;;;;;1.05;1.00;;;;;;;11.51;90.22;98063.05;1785508;80;21044;-80